Wetterdaten: aktuell Sonntag, 03.05.2026 19:01
Datum Zeit Temperatur Luftfeuchte Luftdruck Niederschlag Wind Windrichtung Windrichtung Sonnenschein Solar Taupunkt Windchill Windböen Empfang
03.05.2026 19:01 22,3 °C 39 % 1010,4 hPa 0,0 l/m² 3,2 km/h (1 Bft) S-SW 206 ° 0 min 102 W/m² 7,7 °C 22,3 °C 6,4 km/h (2 Bft) 100 %
03.05.2026 18:01 22,9 °C 31 % 1010,4 hPa 0,0 l/m² 4,0 km/h (1 Bft) S 172 ° 52 min 151 W/m² 4,9 °C 22,9 °C 6,4 km/h (2 Bft) 100 %
03.05.2026 17:01 24,4 °C 30 % 1010,4 hPa 0,0 l/m² 1,9 km/h (1 Bft) W 263 ° 60 min 285 W/m² 5,7 °C 24,4 °C 4,8 km/h (1 Bft) 100 %
03.05.2026 16:01 25,2 °C 26 % 1010,6 hPa 0,0 l/m² 5,0 km/h (1 Bft) N 350 ° 60 min 696 W/m² 4,3 °C 25,2 °C 6,4 km/h (2 Bft) 100 %
03.05.2026 15:01 24,3 °C 30 % 1011,5 hPa 0,0 l/m² 4,0 km/h (1 Bft) S-SW 203 ° 60 min 698 W/m² 5,6 °C 24,3 °C 8,0 km/h (2 Bft) 100 %
03.05.2026 14:01 23,9 °C 34 % 1012,0 hPa 0,0 l/m² 5,5 km/h (1 Bft) W 275 ° 60 min 786 W/m² 7,1 °C 23,9 °C 8,0 km/h (2 Bft) 100 %
03.05.2026 13:01 23,4 °C 38 % 1012,5 hPa 0,0 l/m² 5,4 km/h (1 Bft) SW 229 ° 60 min 735 W/m² 8,3 °C 23,4 °C 9,7 km/h (2 Bft) 96 %
03.05.2026 12:01 21,8 °C 49 % 1013,2 hPa 0,0 l/m² 4,5 km/h (1 Bft) S-SW 200 ° 60 min 800 W/m² 10,6 °C 21,8 °C 12,9 km/h (3 Bft) 100 %
03.05.2026 11:01 20,4 °C 52 % 1013,8 hPa 0,0 l/m² 5,1 km/h (1 Bft) S-SW 212 ° 60 min 698 W/m² 10,2 °C 20,4 °C 9,7 km/h (2 Bft) 100 %
03.05.2026 10:01 18,4 °C 56 % 1014,1 hPa 0,0 l/m² 1,8 km/h (1 Bft) S-SW 204 ° 60 min 445 W/m² 9,5 °C 18,4 °C 3,2 km/h (1 Bft) 100 %
03.05.2026 09:01 16,1 °C 64 % 1014,1 hPa 0,0 l/m² 0,7 km/h (0 Bft) NO 56 ° 60 min 367 W/m² 9,3 °C 16,1 °C 3,2 km/h (1 Bft) 100 %
03.05.2026 08:01 13,0 °C 69 % 1014,0 hPa 0,0 l/m² 3,1 km/h (1 Bft) W-SW 248 ° 37 min 336 W/m² 7,4 °C 13,0 °C 3,2 km/h (1 Bft) 100 %
03.05.2026 07:01 7,5 °C 82 % 1014,0 hPa 0,0 l/m² 0,0 km/h (0 Bft) W-SW 248 ° 0 min 70 W/m² 4,6 °C 7,5 °C 0,0 km/h (0 Bft) 100 %
03.05.2026 06:01 8,2 °C 81 % 1014,2 hPa 0,0 l/m² 3,2 km/h (1 Bft) W 277 ° 0 min 9 W/m² 5,1 °C 8,2 °C 3,2 km/h (1 Bft) 100 %
03.05.2026 05:01 7,6 °C 81 % 1014,3 hPa 0,0 l/m² 0,0 km/h (0 Bft) W 277 ° 0 min 0 W/m² 4,6 °C 7,6 °C 0,0 km/h (0 Bft) 100 %
03.05.2026 04:01 8,8 °C 79 % 1014,5 hPa 0,0 l/m² 0,2 km/h (0 Bft) NW 325 ° 0 min 0 W/m² 5,4 °C 8,8 °C 3,2 km/h (1 Bft) 100 %
03.05.2026 02:58 9,3 °C 78 % 1014,7 hPa 0,0 l/m² 0,0 km/h (0 Bft) NW 325 ° 0 min 0 W/m² 5,7 °C 9,3 °C 0,0 km/h (0 Bft) 100 %
03.05.2026 01:58 10,3 °C 74 % 1014,8 hPa 0,0 l/m² 0,0 km/h (0 Bft) NW 325 ° 0 min 0 W/m² 5,9 °C 10,3 °C 0,0 km/h (0 Bft) 100 %
03.05.2026 00:58 11,1 °C 72 % 1015,0 hPa 0,0 l/m² 0,0 km/h (0 Bft) W-SW 257 ° 0 min 0 W/m² 6,2 °C 11,1 °C 0,0 km/h (0 Bft) 100 %
03.05.2026 00:00 12,4 °C 70 % 1015,0 hPa 0,0 l/m² 0,0 km/h (0 Bft) N-NO 15 ° 0 min 0 W/m² 7,1 °C 12,4 °C 0,0 km/h (0 Bft) 100 %
_ Min-Zeit 06:47 15:53 17:45 - 00:00 - - - - 15:53 06:49 00:00 03:17
Minimum _ 7,4 °C 25 % 1010,2 hPa - 0,0 km/h (0 Bft) - - - - 3,4 °C 7,4 °C 0,0 km/h (0 Bft) 87 %
_ Max-Zeit 16:21 07:10 00:14 00:00 16:04 - - 07:25 14:17 12:52 16:23 14:11 00:00
Maximum _ 25,9 °C 84 % 1015,1 hPa 0,0 l/m² 12,1 km/h
S-SW (2 Bft)
- - 1 min 954 W/m² 11,5 °C 25,8 °C 17,7 km/h
W-SW (3 Bft)
100 %
Durchschnitt _ 16,5 °C 57 % 1013,2 hPa #0,0 l/m² 2,7 km/h (1 Bft) W - #10:29 h 456 W/m² 6,8 °C 16,5 °C 4,5 km/h (1 Bft) 100 %